createdAt,value
2022-09-24T00:02:54.419Z,15.50
2022-09-24T00:06:02.473Z,15.40
2022-09-24T00:09:05.424Z,15.40
2022-09-24T00:12:08.174Z,15.50
2022-09-24T00:15:11.561Z,15.40
2022-09-24T00:18:18.710Z,15.40
2022-09-24T00:21:24.321Z,15.40
2022-09-24T00:24:44.633Z,15.40
2022-09-24T00:27:47.377Z,15.30
2022-09-24T00:30:52.379Z,15.30
2022-09-24T00:33:56.548Z,15.20
2022-09-24T00:36:59.501Z,15.20
2022-09-24T00:40:02.706Z,15.20
2022-09-24T00:43:24.457Z,15.20
2022-09-24T00:46:31.190Z,15.20
2022-09-24T00:49:35.630Z,15.20
2022-09-24T00:52:43.500Z,15.20
2022-09-24T00:55:51.355Z,15.30
2022-09-24T00:58:56.952Z,15.30
2022-09-24T01:01:59.793Z,15.30
2022-09-24T01:05:04.593Z,15.20
2022-09-24T01:08:08.363Z,15.20
2022-09-24T01:11:36.896Z,15.20
2022-09-24T01:15:00.568Z,15.20
2022-09-24T01:18:08.318Z,15.20
2022-09-24T01:21:26.462Z,15.20
2022-09-24T01:24:53.558Z,15.20
2022-09-24T01:28:09.205Z,15.10
2022-09-24T01:31:20.920Z,15.00
2022-09-24T01:34:29.352Z,15.00
2022-09-24T01:37:35.196Z,15.10
2022-09-24T01:40:39.754Z,15.00
2022-09-24T01:43:43.802Z,15.00
2022-09-24T01:46:48.194Z,15.00
2022-09-24T01:49:53.662Z,14.90
2022-09-24T01:53:01.190Z,14.90
2022-09-24T01:56:08.698Z,14.90
2022-09-24T01:59:16.354Z,14.90
2022-09-24T02:02:28.831Z,14.80
2022-09-24T02:05:35.330Z,14.90
2022-09-24T02:08:42.580Z,14.90
2022-09-24T02:11:54.325Z,14.80
2022-09-24T02:15:02.948Z,14.80
2022-09-24T02:18:12.118Z,14.80
2022-09-24T02:21:17.957Z,14.80
2022-09-24T02:24:23.993Z,14.70
2022-09-24T02:27:28.508Z,14.70
2022-09-24T02:30:38.401Z,14.70
2022-09-24T02:34:02.838Z,14.70
2022-09-24T02:37:09.325Z,14.70
2022-09-24T02:40:15.619Z,14.70
2022-09-24T02:43:18.457Z,14.60
2022-09-24T02:46:21.440Z,14.60
2022-09-24T02:49:25.827Z,14.60
2022-09-24T02:52:28.974Z,14.50
2022-09-24T02:55:32.694Z,14.50
2022-09-24T02:58:37.280Z,14.50
2022-09-24T03:01:40.358Z,14.40
2022-09-24T03:04:44.623Z,14.50
2022-09-24T03:07:47.375Z,14.50
2022-09-24T03:10:51.101Z,14.50
2022-09-24T03:13:53.836Z,14.50
2022-09-24T03:16:56.572Z,14.50
2022-09-24T03:20:00.836Z,14.50
2022-09-24T03:23:03.725Z,14.50
2022-09-24T03:26:06.846Z,14.50
2022-09-24T03:29:10.209Z,14.50
2022-09-24T03:32:12.010Z,14.50
2022-09-24T03:35:16.234Z,14.50
2022-09-24T03:38:19.029Z,14.50
2022-09-24T03:41:22.023Z,14.40
2022-09-24T03:44:25.760Z,14.50
2022-09-24T03:47:28.731Z,14.50
2022-09-24T03:50:33.131Z,14.50
2022-09-24T03:53:36.318Z,14.50
2022-09-24T03:56:39.104Z,14.50
2022-09-24T03:59:41.962Z,14.50
2022-09-24T04:02:45.027Z,14.50
2022-09-24T04:05:50.621Z,14.50
2022-09-24T04:08:53.520Z,14.50
2022-09-24T04:11:56.316Z,14.60
2022-09-24T04:14:59.089Z,14.60
2022-09-24T04:18:01.831Z,14.60
2022-09-24T04:21:05.986Z,14.60
2022-09-24T04:24:08.836Z,14.60
2022-09-24T04:27:11.704Z,14.70
2022-09-24T04:30:16.016Z,14.70
2022-09-24T04:33:19.420Z,14.70
2022-09-24T04:36:23.542Z,14.70
2022-09-24T04:39:27.740Z,14.70
2022-09-24T04:42:30.516Z,14.70
2022-09-24T04:45:34.286Z,14.70
2022-09-24T04:48:38.156Z,14.70
2022-09-24T04:51:42.526Z,14.70
2022-09-24T04:54:47.358Z,14.70
2022-09-24T04:57:50.985Z,14.70
2022-09-24T05:00:54.229Z,14.70
2022-09-24T05:03:56.983Z,14.80
2022-09-24T05:07:01.074Z,14.80
2022-09-24T05:10:04.257Z,14.80
2022-09-24T05:13:07.059Z,14.80
2022-09-24T05:16:10.120Z,14.70
2022-09-24T05:19:13.198Z,14.80
2022-09-24T05:22:17.275Z,14.80
2022-09-24T05:25:22.230Z,14.80
2022-09-24T05:28:24.139Z,14.80
2022-09-24T05:31:26.933Z,14.80
2022-09-24T05:34:30.215Z,14.80
2022-09-24T05:37:34.321Z,14.80
2022-09-24T05:40:49.341Z,14.80
2022-09-24T05:43:52.143Z,14.80
2022-09-24T05:46:55.024Z,14.80
2022-09-24T05:49:57.829Z,14.80
2022-09-24T05:53:02.574Z,14.80
2022-09-24T05:56:05.534Z,14.80
2022-09-24T05:59:08.390Z,14.80
2022-09-24T06:02:14.962Z,14.90
2022-09-24T06:05:17.876Z,14.90
2022-09-24T06:08:22.167Z,14.90
2022-09-24T06:11:25.570Z,14.90
2022-09-24T06:14:28.466Z,15.00
2022-09-24T06:17:31.829Z,15.00
2022-09-24T06:20:34.610Z,15.00
2022-09-24T06:23:39.496Z,15.00
2022-09-24T06:26:42.242Z,15.10
2022-09-24T06:29:45.028Z,15.10
2022-09-24T06:32:47.862Z,15.00
2022-09-24T06:35:50.867Z,15.00
2022-09-24T06:38:55.227Z,15.00
2022-09-24T06:41:58.406Z,15.00
2022-09-24T06:45:01.343Z,15.10
2022-09-24T06:48:06.713Z,15.20
2022-09-24T06:51:09.494Z,15.20
2022-09-24T06:54:14.186Z,15.30
2022-09-24T06:57:17.172Z,15.40
2022-09-24T07:00:20.027Z,15.40
2022-09-24T07:03:23.329Z,15.40
2022-09-24T07:06:26.173Z,15.50
2022-09-24T07:09:30.305Z,15.50
2022-09-24T07:12:34.676Z,15.60
2022-09-24T07:15:37.723Z,15.60
2022-09-24T07:18:40.578Z,15.60
2022-09-24T07:21:43.410Z,15.60
2022-09-24T07:24:48.357Z,15.70
2022-09-24T07:27:51.381Z,15.70
2022-09-24T07:30:58.805Z,15.60
2022-09-24T07:34:01.736Z,15.60
2022-09-24T07:37:04.587Z,15.60
2022-09-24T07:40:10.087Z,15.60
2022-09-24T07:43:14.135Z,15.70
2022-09-24T07:46:17.073Z,15.70
2022-09-24T07:49:20.010Z,15.80
2022-09-24T07:52:22.804Z,15.60
2022-09-24T07:55:27.711Z,15.70
2022-09-24T07:58:30.969Z,15.70
2022-09-24T08:01:34.688Z,15.70
2022-09-24T08:04:37.895Z,15.60
2022-09-24T08:07:40.922Z,15.60
2022-09-24T08:10:45.392Z,15.70
2022-09-24T08:13:48.386Z,15.80
2022-09-24T08:16:51.213Z,15.80
2022-09-24T08:19:56.810Z,15.80
2022-09-24T08:23:02.786Z,15.80
2022-09-24T08:26:07.526Z,15.80
2022-09-24T08:29:10.710Z,15.90
2022-09-24T08:32:13.944Z,16.00
2022-09-24T08:35:16.771Z,16.00
2022-09-24T08:38:20.883Z,15.90
2022-09-24T08:41:43.625Z,15.90
2022-09-24T08:45:06.970Z,15.90
2022-09-24T08:48:14.830Z,15.90
2022-09-24T08:51:20.099Z,15.90
2022-09-24T08:54:25.527Z,16.00
2022-09-24T08:57:29.882Z,16.00
2022-09-24T09:22:30.928Z,16.50
2022-09-24T09:25:37.093Z,16.30
2022-09-24T09:28:41.621Z,16.20
2022-09-24T09:31:59.630Z,16.20
2022-09-24T09:35:12.298Z,16.30
2022-09-24T09:38:23.559Z,16.40
2022-09-24T09:41:35.776Z,16.40
2022-09-24T09:44:42.426Z,16.50
2022-09-24T10:00:05.063Z,16.70
2022-09-24T10:03:08.534Z,16.80
2022-09-24T10:06:14.568Z,16.90
2022-09-24T10:09:20.400Z,16.90
2022-09-24T10:12:24.339Z,16.90
2022-09-24T10:15:28.608Z,16.90
2022-09-24T10:18:34.578Z,17.00
2022-09-24T10:21:38.404Z,17.00
2022-09-24T10:24:44.415Z,16.80
2022-09-24T10:27:48.420Z,16.70
2022-09-24T10:30:58.961Z,16.80
2022-09-24T10:34:03.134Z,16.90
2022-09-24T10:37:15.213Z,16.90
2022-09-24T10:40:24.326Z,17.00
2022-09-24T10:43:27.239Z,17.10
2022-09-24T10:46:49.003Z,17.00
2022-09-24T10:50:22.183Z,17.00
2022-09-24T10:53:38.649Z,17.10
2022-09-24T10:56:46.602Z,17.10
2022-09-24T11:00:02.110Z,17.10
2022-09-24T11:03:59.477Z,17.20
2022-09-24T11:07:27.078Z,17.20
2022-09-24T11:10:45.547Z,17.20
2022-09-24T11:13:56.079Z,17.20
2022-09-24T11:17:25.734Z,17.20
2022-09-24T11:20:36.996Z,17.20
2022-09-24T11:24:04.130Z,17.10
2022-09-24T11:27:28.389Z,17.10
2022-09-24T11:30:39.507Z,17.10
2022-09-24T11:34:06.030Z,17.10
2022-09-24T12:37:02.123Z,17.30
2022-09-24T12:40:30.080Z,17.40
2022-09-24T12:43:40.293Z,17.50
2022-09-24T12:46:45.870Z,17.50
2022-09-24T12:49:55.614Z,17.40
2022-09-24T12:52:58.817Z,17.50
2022-09-24T12:56:05.234Z,17.40
2022-09-24T12:59:25.943Z,17.40
2022-09-24T13:02:31.284Z,17.50
2022-09-24T13:05:47.224Z,17.50
2022-09-24T13:08:50.720Z,17.60
2022-09-24T13:12:04.966Z,17.60
2022-09-24T13:15:10.640Z,17.60
2022-09-24T13:18:24.210Z,17.60
2022-09-24T13:21:28.944Z,17.70
2022-09-24T13:24:36.166Z,17.70
2022-09-24T13:27:42.698Z,17.70
2022-09-24T13:30:49.392Z,17.70
2022-09-24T13:33:56.439Z,17.80
2022-09-24T13:37:03.265Z,17.80
2022-09-24T13:40:16.256Z,17.80
2022-09-24T13:43:36.731Z,17.90
2022-09-24T13:46:43.799Z,17.80
2022-09-24T13:49:48.905Z,17.80
2022-09-24T13:52:56.629Z,17.80
2022-09-24T13:56:03.269Z,17.90
2022-09-24T13:59:11.773Z,18.00
2022-09-24T14:02:26.761Z,17.80
2022-09-24T14:05:31.339Z,17.80
2022-09-24T14:08:34.386Z,17.90
2022-09-24T14:11:37.384Z,17.90
2022-09-24T14:14:45.700Z,17.90
2022-09-24T14:17:57.498Z,18.00
2022-09-24T14:21:06.173Z,18.00
2022-09-24T14:24:16.889Z,18.00
2022-09-24T16:09:35.370Z,18.00
2022-09-24T16:12:38.659Z,18.00
2022-09-24T16:15:41.645Z,18.00
2022-09-24T16:18:46.296Z,18.00
2022-09-24T16:21:49.141Z,18.00
2022-09-24T16:24:52.087Z,17.90
2022-09-24T16:27:56.379Z,17.90
2022-09-24T16:30:59.623Z,17.90
2022-09-24T16:34:03.952Z,18.00
2022-09-24T16:37:06.823Z,17.90
2022-09-24T16:40:10.879Z,17.80
2022-09-24T16:43:13.805Z,17.80
2022-09-24T16:46:20.731Z,17.80
2022-09-24T16:49:25.426Z,17.80
2022-09-24T16:52:31.470Z,17.80
2022-09-24T16:55:34.336Z,17.80
2022-09-24T16:58:37.817Z,17.80
2022-09-24T17:01:42.555Z,17.80
2022-09-24T17:04:46.867Z,17.80
2022-09-24T17:07:49.745Z,17.70
2022-09-24T17:10:53.896Z,17.80
2022-09-24T17:14:00.880Z,17.70
2022-09-24T17:17:03.742Z,17.70
2022-09-24T17:20:09.047Z,17.60
2022-09-24T17:23:11.937Z,17.60
2022-09-24T17:26:17.321Z,17.60
2022-09-24T17:29:22.532Z,17.70
2022-09-24T17:32:25.970Z,17.70
2022-09-24T17:35:30.162Z,17.60
2022-09-24T17:38:34.459Z,17.60
2022-09-24T17:41:37.464Z,17.60
2022-09-24T17:44:40.294Z,17.50
2022-09-24T17:47:58.506Z,17.50
2022-09-24T17:51:05.544Z,17.50
2022-09-24T17:54:10.403Z,17.60
2022-09-24T17:57:13.221Z,17.60
2022-09-24T18:00:16.280Z,17.50
2022-09-24T18:03:19.350Z,17.50
2022-09-24T18:06:27.122Z,17.40
2022-09-24T18:09:32.222Z,17.40
2022-09-24T18:12:35.055Z,17.40
2022-09-24T18:15:38.098Z,17.30
2022-09-24T18:18:41.378Z,17.30
2022-09-24T18:21:46.652Z,17.30
2022-09-24T18:24:49.509Z,17.30
2022-09-24T18:27:52.372Z,17.30
2022-09-24T18:31:04.459Z,17.30
2022-09-24T18:34:08.964Z,17.30
2022-09-24T18:37:13.141Z,17.30
2022-09-24T18:40:16.065Z,17.30
2022-09-24T18:43:19.115Z,17.30
2022-09-24T18:46:23.680Z,17.30
2022-09-24T18:49:26.568Z,17.40
2022-09-24T18:52:32.442Z,17.40
2022-09-24T18:55:39.752Z,17.30
2022-09-24T18:58:42.738Z,17.30
2022-09-24T19:01:46.961Z,17.30
2022-09-24T19:04:50.096Z,17.40
2022-09-24T19:07:54.352Z,17.40
2022-09-24T19:11:01.997Z,17.40
2022-09-24T19:14:05.331Z,17.40
2022-09-24T19:17:08.197Z,17.30
2022-09-24T19:20:11.407Z,17.40
2022-09-24T19:23:17.409Z,17.40
2022-09-24T19:26:22.656Z,17.40
2022-09-24T19:29:26.463Z,17.40
2022-09-24T19:32:29.294Z,17.40
2022-09-24T19:35:32.222Z,17.40
2022-09-24T19:38:37.057Z,17.30
2022-09-24T19:41:40.165Z,17.30
2022-09-24T19:44:43.616Z,17.30
2022-09-24T19:47:46.523Z,17.30
2022-09-24T19:50:49.427Z,17.30
2022-09-24T19:53:55.429Z,17.20
2022-09-24T19:56:58.303Z,17.20
2022-09-24T20:00:01.658Z,17.20
2022-09-24T20:03:04.782Z,17.30
2022-09-24T20:06:08.889Z,17.30
2022-09-24T20:09:13.094Z,17.30
2022-09-24T20:12:17.047Z,17.20
2022-09-24T20:15:19.926Z,17.20
2022-09-24T20:18:22.777Z,17.20
2022-09-24T20:21:27.634Z,17.20
2022-09-24T20:24:31.902Z,17.30
2022-09-24T20:27:52.213Z,17.30
2022-09-24T20:30:55.142Z,17.30
2022-09-24T20:33:58.518Z,17.30
2022-09-24T20:37:01.919Z,17.20
2022-09-24T20:40:07.160Z,17.20
2022-09-24T20:43:10.140Z,17.20
2022-09-24T20:46:16.481Z,17.10
2022-09-24T20:49:22.570Z,17.10
2022-09-24T20:52:25.929Z,17.10
2022-09-24T20:55:30.559Z,17.20
2022-09-24T20:58:33.696Z,17.20
2022-09-24T21:01:37.487Z,17.20
2022-09-24T21:04:40.467Z,17.10
2022-09-24T21:07:43.428Z,17.10
2022-09-24T21:10:47.767Z,17.10
2022-09-24T21:13:52.810Z,17.10
2022-09-24T21:16:56.715Z,17.10
2022-09-24T21:19:59.582Z,17.10
2022-09-24T21:23:02.489Z,17.00
2022-09-24T21:26:14.880Z,17.00
2022-09-24T21:29:20.973Z,17.00
2022-09-24T21:32:23.929Z,17.10
2022-09-24T21:35:27.040Z,17.10
2022-09-24T21:38:30.307Z,17.10
2022-09-24T21:41:37.391Z,17.00
2022-09-24T21:44:41.546Z,17.00
2022-09-24T21:47:44.372Z,17.00
2022-09-24T21:50:47.201Z,16.90
2022-09-24T21:53:50.965Z,16.90
2022-09-24T21:56:55.413Z,16.90
2022-09-24T22:00:01.422Z,16.90
2022-09-24T22:03:04.356Z,17.00
2022-09-24T22:06:07.529Z,17.00
2022-09-24T22:09:11.734Z,17.00
2022-09-24T22:12:16.595Z,17.00
2022-09-24T22:15:21.342Z,17.00
2022-09-24T22:18:24.467Z,17.00
2022-09-24T22:21:27.795Z,16.90
2022-09-24T22:24:30.839Z,16.90
2022-09-24T22:27:35.001Z,16.80
2022-09-24T22:30:42.942Z,16.80
2022-09-24T22:34:03.852Z,16.80
2022-09-24T22:37:07.940Z,16.80
2022-09-24T22:40:11.560Z,16.80
2022-09-24T22:43:15.799Z,16.80
2022-09-24T22:46:19.204Z,16.80
2022-09-24T22:49:22.477Z,16.80
2022-09-24T22:52:25.404Z,16.80
2022-09-24T22:55:28.545Z,16.70
2022-09-24T22:58:33.658Z,16.70
2022-09-24T23:01:41.538Z,16.70
2022-09-24T23:04:46.181Z,16.70
2022-09-24T23:07:49.075Z,16.70
2022-09-24T23:10:51.917Z,16.70
2022-09-24T23:13:57.819Z,16.70
2022-09-24T23:17:00.699Z,16.70
2022-09-24T23:20:04.245Z,16.60
2022-09-24T23:23:07.085Z,16.60
2022-09-24T23:26:16.611Z,16.60
2022-09-24T23:29:21.177Z,16.50
2022-09-24T23:32:24.058Z,16.50
2022-09-24T23:35:26.908Z,16.40
2022-09-24T23:41:33.607Z,16.30
2022-09-24T23:44:37.919Z,16.30
2022-09-24T23:47:40.786Z,16.20
2022-09-24T23:50:44.129Z,16.20
2022-09-24T23:53:47.379Z,16.20
2022-09-24T23:56:50.270Z,16.20
2022-09-24T23:59:54.479Z,16.20
